Time;durP1;ratioP1;P1;durP2;ratioP2;P2;SDS_P1;SDS_P2;PMS_P1;PMS_P2;Temp;Humidity;BMP_temperature;BMP_pressure;BME280_temperature;BME280_humidity;BME280_pressure;Samples;Min_cycle;Max_cycle;Signal;HPM_P1;HPM_P2
2022/10/11 00:00:23;;;;;;;;;;;;;;;;;;5014789;28;7024;-85
2022/10/11 00:02:48;;;;;;;;;;;;;;;;;;5015063;28;8616;-85
2022/10/11 00:05:13;;;;;;;;;;;;;;;;;;5015769;28;8522;-86
2022/10/11 00:07:39;;;;;;;;;;;;;;;;;;5014052;28;8410;-85
2022/10/11 00:10:06;;;;;;;;;;;;;;;;;;5015171;28;8398;-86
2022/10/11 00:12:32;;;;;;;;;;;;;;;;;;5014372;28;8487;-84
2022/10/11 00:14:58;;;;;;;;;;;;;;;;;;5014719;28;7194;-84
2022/10/11 00:17:23;;;;;;;;;;;;;;;;;;5014826;28;7228;-85
2022/10/11 00:19:49;;;;;;;;;;;;;;;;;;5014761;28;8503;-85
2022/10/11 00:22:15;;;;;;;;;;;;;;;;;;5014544;28;7018;-86
2022/10/11 00:24:40;;;;;;;;;;;;;;;;;;5014387;28;8344;-85
2022/10/11 00:27:06;;;;;;;;;;;;;;;;;;5014619;28;8455;-86
2022/10/11 00:29:31;;;;;;;;;;;;;;;;;;5015211;28;7225;-85
2022/10/11 00:31:57;;;;;;;;;;;;;;;;;;5014582;28;8469;-85
2022/10/11 00:34:23;;;;;;;;;;;;;;;;;;5014316;28;7144;-86
2022/10/11 00:36:48;;;;;;;;;;;;;;;;;;5014721;28;7395;-86
2022/10/11 00:39:13;;;;;;;;;;;;;;;;;;5014499;28;7150;-86
2022/10/11 00:41:39;;;;;;;;;;;;;;;;;;5014047;28;8659;-85
2022/10/11 00:44:18;;;;;;;;;;;;;;;;;;5014629;28;8415;-86
2022/10/11 00:46:50;;;;;;;;;;;;;;;;;;5014167;28;8448;-86
2022/10/11 00:49:20;;;;;;;;;;;;;;;;;;5014316;28;8405;-85
2022/10/11 00:51:59;;;;;;;;;;;;;;;;;;5014003;28;8767;-86
2022/10/11 00:54:28;;;;;;;;;;;;;;;;;;5014651;28;8502;-86
2022/10/11 00:56:58;;;;;;;;;;;;;;;;;;5013946;28;9117;-86
2022/10/11 00:59:27;;;;;;;;;;;;;;;;;;5014456;28;8311;-86
2022/10/11 01:01:52;;;;;;;;;;;;;;;;;;5013866;28;7037;-86
2022/10/11 01:04:18;;;;;;;;;;;;;;;;;;5013998;28;8345;-86
2022/10/11 01:06:44;;;;;;;;;;;;;;;;;;5013916;28;7231;-86
2022/10/11 01:09:11;;;;;;;;;;;;;;;;;;5014288;28;8494;-86
2022/10/11 01:11:40;;;;;;;;;;;;;;;;;;5013862;28;7221;-84
2022/10/11 01:14:24;;;;;;;;;;;;;;;;;;5014132;28;8526;-85
2022/10/11 01:17:03;;;;;;;;;;;;;;;;;;5030238;28;7050;-86
2022/10/11 01:19:34;;;;;;;;;;;;;;;;;;5016173;28;8336;-82
2022/10/11 01:22:09;;;;;;;;;;;;;;;;;;5034545;28;7169;-85
2022/10/11 01:24:40;;;;;;;;;;;;;;;;;;5034769;28;8426;-86
2022/10/11 01:27:24;;;;;;;;;;;;;;;;;;5034298;28;8430;-86
2022/10/11 01:30:04;;;;;;;;;;;;;;;;;;5034782;28;7259;-85
2022/10/11 01:32:47;;;;;;;;;;;;;;;;;;5018241;28;8338;-85
2022/10/11 01:35:25;;;;;;;;;;;;;;;;;;5017826;28;7047;-85
2022/10/11 01:38:13;;;;;;;;;;;;;;;;;;5017901;28;8471;-85
2022/10/11 01:40:45;;;;;;;;;;;;;;;;;;5017513;28;8705;-85
2022/10/11 01:43:14;;;;;;;;;;;;;;;;;;5017372;28;8506;-87
2022/10/11 01:45:41;;;;;;;;;;;;;;;;;;5017310;28;7405;-86
2022/10/11 01:48:08;;;;;;;;;;;;;;;;;;5017727;28;8390;-86
2022/10/11 01:50:44;;;;;;;;;;;;;;;;;;5017428;28;8622;-85
2022/10/11 01:53:39;;;;;;;;;;;;;;;;;;5017974;28;7123;-85
2022/10/11 01:56:22;;;;;;;;;;;;;;;;;;5017252;28;8396;-86
2022/10/11 01:58:54;;;;;;;;;;;;;;;;;;5033548;28;7346;-86
2022/10/11 02:01:31;;;;;;;;;;;;;;;;;;5033860;28;7040;-87
2022/10/11 02:04:17;;;;;;;;;;;;;;;;;;5017442;28;8380;-86
2022/10/11 02:07:01;;;;;;;;;;;;;;;;;;5016951;28;8456;-86
2022/10/11 02:09:37;;;;;;;;;;;;;;;;;;5033437;28;7432;-86
2022/10/11 02:12:07;;;;;;;;;;;;;;;;;;5017377;28;8408;-86
2022/10/11 02:14:38;;;;;;;;;;;;;;;;;;5018447;28;8755;-85
2022/10/11 02:17:09;;;;;;;;;;;;;;;;;;5017556;28;7139;-86
2022/10/11 02:19:39;;;;;;;;;;;;;;;;;;5017017;28;7161;-87
2022/10/11 02:22:09;;;;;;;;;;;;;;;;;;5016775;28;8438;-87
2022/10/11 02:24:39;;;;;;;;;;;;;;;;;;5016608;28;8489;-85
2022/10/11 02:27:05;;;;;;;;;;;;;;;;;;5016778;28;8516;-86
2022/10/11 02:29:34;;;;;;;;;;;;;;;;;;5017091;28;8670;-85
2022/10/11 02:31:59;;;;;;;;;;;;;;;;;;5016173;28;8491;-86
2022/10/11 02:34:30;;;;;;;;;;;;;;;;;;5016661;28;9351;-86
2022/10/11 02:36:56;;;;;;;;;;;;;;;;;;5016415;28;8176;-85
2022/10/11 02:39:44;;;;;;;;;;;;;;;;;;5033495;28;8464;-85
2022/10/11 02:42:14;;;;;;;;;;;;;;;;;;5009862;28;8481;-85
2022/10/11 02:44:42;;;;;;;;;;;;;;;;;;5020184;28;8519;-85
2022/10/11 02:47:08;;;;;;;;;;;;;;;;;;5019285;28;7001;-84
2022/10/11 02:49:34;;;;;;;;;;;;;;;;;;5019512;28;7225;-85
2022/10/11 02:52:03;;;;;;;;;;;;;;;;;;5019544;28;8719;-85
2022/10/11 02:54:28;;;;;;;;;;;;;;;;;;5019962;28;7239;-86
2022/10/11 02:56:54;;;;;;;;;;;;;;;;;;5019683;28;8498;-84
2022/10/11 02:59:19;;;;;;;;;;;;;;;;;;5020194;28;8333;-84
2022/10/11 03:01:44;;;;;;;;;;;;;;;;;;5019371;28;8530;-85
2022/10/11 03:04:10;;;;;;;;;;;;;;;;;;5019051;28;8061;-84
2022/10/11 03:06:35;;;;;;;;;;;;;;;;;;5019121;28;8398;-85
2022/10/11 03:09:01;;;;;;;;;;;;;;;;;;5019569;28;7012;-84
2022/10/11 03:11:26;;;;;;;;;;;;;;;;;;5019224;28;7596;-83
2022/10/11 03:13:52;;;;;;;;;;;;;;;;;;5019368;28;7235;-84
2022/10/11 03:16:18;;;;;;;;;;;;;;;;;;5019083;28;7233;-84
2022/10/11 03:18:43;;;;;;;;;;;;;;;;;;5018878;28;8389;-85
2022/10/11 03:21:09;;;;;;;;;;;;;;;;;;5019286;28;8414;-85
2022/10/11 03:23:34;;;;;;;;;;;;;;;;;;5019302;28;8469;-84
2022/10/11 03:26:00;;;;;;;;;;;;;;;;;;5019330;28;7120;-86
2022/10/11 03:28:26;;;;;;;;;;;;;;;;;;5018873;28;6977;-85
2022/10/11 03:30:52;;;;;;;;;;;;;;;;;;5018959;28;7041;-85
2022/10/11 03:33:18;;;;;;;;;;;;;;;;;;5019135;28;8608;-85
2022/10/11 03:35:45;;;;;;;;;;;;;;;;;;5018660;28;9298;-85
2022/10/11 03:38:12;;;;;;;;;;;;;;;;;;5018413;28;8881;-85
2022/10/11 03:40:39;;;;;;;;;;;;;;;;;;5018304;28;7218;-85
2022/10/11 03:43:05;;;;;;;;;;;;;;;;;;5018023;28;8413;-85
2022/10/11 03:45:30;;;;;;;;;;;;;;;;;;5018689;28;8385;-85
2022/10/11 03:47:56;;;;;;;;;;;;;;;;;;5018335;28;7384;-85
2022/10/11 03:50:22;;;;;;;;;;;;;;;;;;5018883;28;7086;-85
2022/10/11 03:52:47;;;;;;;;;;;;;;;;;;5020601;28;8419;-80
2022/10/11 03:55:13;;;;;;;;;;;;;;;;;;5019195;28;8437;-85
2022/10/11 03:57:38;;;;;;;;;;;;;;;;;;5018574;28;8499;-86
2022/10/11 04:00:04;;;;;;;;;;;;;;;;;;5018179;28;7140;-86
2022/10/11 04:02:30;;;;;;;;;;;;;;;;;;5018030;28;8497;-84
2022/10/11 04:04:55;;;;;;;;;;;;;;;;;;5017937;28;8350;-85
2022/10/11 04:07:21;;;;;;;;;;;;;;;;;;5018474;28;8386;-84
2022/10/11 04:09:46;;;;;;;;;;;;;;;;;;5018498;28;7170;-85
2022/10/11 04:12:12;;;;;;;;;;;;;;;;;;5018372;28;8598;-84
2022/10/11 04:14:37;;;;;;;;;;;;;;;;;;5018422;28;8510;-84
2022/10/11 04:17:02;;;;;;;;;;;;;;;;;;5017764;28;8381;-85
2022/10/11 04:19:28;;;;;;;;;;;;;;;;;;5017967;28;8379;-85
2022/10/11 04:21:53;;;;;;;;;;;;;;;;;;5017969;28;8390;-84
2022/10/11 04:24:19;;;;;;;;;;;;;;;;;;5017738;28;8699;-85
2022/10/11 04:26:44;;;;;;;;;;;;;;;;;;5017728;28;8386;-86
2022/10/11 04:29:10;;;;;;;;;;;;;;;;;;5017698;28;7005;-85
2022/10/11 04:31:36;;;;;;;;;;;;;;;;;;5018133;28;8531;-85
2022/10/11 04:34:01;;;;;;;;;;;;;;;;;;5018060;28;8593;-84
2022/10/11 04:36:27;;;;;;;;;;;;;;;;;;5017551;28;7134;-85
2022/10/11 04:38:54;;;;;;;;;;;;;;;;;;5017618;28;7158;-84
2022/10/11 04:41:20;;;;;;;;;;;;;;;;;;5017399;28;7166;-86
2022/10/11 04:43:46;;;;;;;;;;;;;;;;;;5017671;28;8392;-85
2022/10/11 04:46:11;;;;;;;;;;;;;;;;;;5017624;28;8367;-85
2022/10/11 04:48:37;;;;;;;;;;;;;;;;;;5017169;28;8343;-85
2022/10/11 04:51:03;;;;;;;;;;;;;;;;;;5017855;28;8755;-86
2022/10/11 04:53:28;;;;;;;;;;;;;;;;;;5017045;28;7051;-86
2022/10/11 04:55:59;;;;;;;;;;;;;;;;;;5017744;28;7149;-85
2022/10/11 04:58:26;;;;;;;;;;;;;;;;;;5017485;28;9005;-84
2022/10/11 05:00:52;;;;;;;;;;;;;;;;;;5017111;28;9022;-84
2022/10/11 05:03:18;;;;;;;;;;;;;;;;;;5017326;28;8456;-85
2022/10/11 05:05:44;;;;;;;;;;;;;;;;;;5017518;28;7158;-85
2022/10/11 05:08:10;;;;;;;;;;;;;;;;;;5017378;28;7023;-85
2022/10/11 05:10:35;;;;;;;;;;;;;;;;;;5017663;28;8476;-84
2022/10/11 05:13:01;;;;;;;;;;;;;;;;;;5016970;28;8397;-84
2022/10/11 05:15:26;;;;;;;;;;;;;;;;;;5017193;28;6927;-84
2022/10/11 05:17:52;;;;;;;;;;;;;;;;;;5017234;28;8367;-83
2022/10/11 05:20:18;;;;;;;;;;;;;;;;;;5017561;28;7057;-84
2022/10/11 05:22:44;;;;;;;;;;;;;;;;;;5017934;28;8394;-83
2022/10/11 05:25:09;;;;;;;;;;;;;;;;;;5017115;28;8609;-84
2022/10/11 05:27:35;;;;;;;;;;;;;;;;;;5016889;28;7420;-84
2022/10/11 05:30:00;;;;;;;;;;;;;;;;;;5016890;28;8357;-84
2022/10/11 05:32:26;;;;;;;;;;;;;;;;;;5016883;28;7137;-84
2022/10/11 05:34:52;;;;;;;;;;;;;;;;;;5017067;28;7102;-85
2022/10/11 05:37:18;;;;;;;;;;;;;;;;;;5017157;28;8521;-85
2022/10/11 05:39:45;;;;;;;;;;;;;;;;;;5016413;28;7990;-85
2022/10/11 05:42:11;;;;;;;;;;;;;;;;;;5017144;28;7174;-86
2022/10/11 05:44:36;;;;;;;;;;;;;;;;;;5016838;28;8854;-86
2022/10/11 05:47:02;;;;;;;;;;;;;;;;;;5016711;28;8451;-83
2022/10/11 05:49:28;;;;;;;;;;;;;;;;;;5017035;28;8717;-84
2022/10/11 05:51:53;;;;;;;;;;;;;;;;;;5016498;28;8794;-85
2022/10/11 05:54:18;;;;;;;;;;;;;;;;;;5016971;28;8527;-84
2022/10/11 05:56:44;;;;;;;;;;;;;;;;;;5016832;28;7321;-85
2022/10/11 05:59:09;;;;;;;;;;;;;;;;;;5016615;28;7265;-84
2022/10/11 06:01:35;;;;;;;;;;;;;;;;;;5017163;28;8397;-83
2022/10/11 06:04:00;;;;;;;;;;;;;;;;;;5016513;28;7042;-84
2022/10/11 06:06:26;;;;;;;;;;;;;;;;;;5018504;28;7578;-84
2022/10/11 06:08:51;;;;;;;;;;;;;;;;;;5020408;28;8604;-84
2022/10/11 06:11:23;;;;;;;;;;;;;;;;;;5020143;28;8390;-83
2022/10/11 06:13:49;;;;;;;;;;;;;;;;;;5020034;28;7189;-82
2022/10/11 06:16:15;;;;;;;;;;;;;;;;;;5020316;28;8388;-84
2022/10/11 06:18:40;;;;;;;;;;;;;;;;;;5020325;28;7167;-85
2022/10/11 06:21:06;;;;;;;;;;;;;;;;;;5020175;28;8426;-84
2022/10/11 06:23:32;;;;;;;;;;;;;;;;;;5020196;28;7149;-84
2022/10/11 06:25:58;;;;;;;;;;;;;;;;;;5020685;28;8392;-84
2022/10/11 06:28:24;;;;;;;;;;;;;;;;;;5020116;28;8429;-84
2022/10/11 06:30:50;;;;;;;;;;;;;;;;;;5020336;28;8431;-84
2022/10/11 06:33:15;;;;;;;;;;;;;;;;;;5019947;28;7209;-84
2022/10/11 06:35:41;;;;;;;;;;;;;;;;;;5019649;28;8457;-85
2022/10/11 06:38:06;;;;;;;;;;;;;;;;;;5019765;28;8551;-86
2022/10/11 06:40:32;;;;;;;;;;;;;;;;;;5016122;28;7416;-85
2022/10/11 06:42:57;;;;;;;;;;;;;;;;;;5016491;28;8403;-85
2022/10/11 06:45:23;;;;;;;;;;;;;;;;;;5016276;28;8349;-83
2022/10/11 06:47:48;;;;;;;;;;;;;;;;;;5016141;28;9380;-84
2022/10/11 06:50:14;;;;;;;;;;;;;;;;;;5016329;28;8287;-84
2022/10/11 06:52:39;;;;;;;;;;;;;;;;;;5015596;28;8739;-85
2022/10/11 06:55:05;;;;;;;;;;;;;;;;;;5016106;28;7228;-85
2022/10/11 06:57:30;;;;;;;;;;;;;;;;;;5016193;28;8396;-85
2022/10/11 06:59:56;;;;;;;;;;;;;;;;;;5015878;28;9639;-84
2022/10/11 07:02:22;;;;;;;;;;;;;;;;;;5016301;28;8327;-85
2022/10/11 07:04:47;;;;;;;;;;;;;;;;;;5016628;28;8441;-84
2022/10/11 07:07:13;;;;;;;;;;;;;;;;;;5016142;28;8809;-85
2022/10/11 07:09:39;;;;;;;;;;;;;;;;;;5016157;28;8408;-85
2022/10/11 07:12:04;;;;;;;;;;;;;;;;;;5017095;28;7152;-84
2022/10/11 07:14:30;;;;;;;;;;;;;;;;;;5016385;28;8623;-84
2022/10/11 07:16:56;;;;;;;;;;;;;;;;;;5016476;28;8413;-85
2022/10/11 07:19:22;;;;;;;;;;;;;;;;;;5015451;28;7440;-85
2022/10/11 07:21:47;;;;;;;;;;;;;;;;;;5016152;28;6979;-87
2022/10/11 07:24:13;;;;;;;;;;;;;;;;;;5015738;28;7048;-86
2022/10/11 07:26:39;;;;;;;;;;;;;;;;;;5015084;28;7162;-86
2022/10/11 07:29:07;;;;;;;;;;;;;;;;;;5015427;28;7058;-87
2022/10/11 07:31:33;;;;;;;;;;;;;;;;;;5015360;28;7185;-88
2022/10/11 07:33:58;;;;;;;;;;;;;;;;;;5015698;28;7403;-86
2022/10/11 07:36:24;;;;;;;;;;;;;;;;;;5016089;28;8564;-86
2022/10/11 07:38:50;;;;;;;;;;;;;;;;;;5015305;28;7262;-86
2022/10/11 07:41:16;;;;;;;;;;;;;;;;;;5015139;28;8462;-86
2022/10/11 07:43:46;;;;;;;;;;;;;;;;;;5015627;28;8560;-85
2022/10/11 07:46:12;;;;;;;;;;;;;;;;;;5014932;28;8341;-85
2022/10/11 07:48:38;;;;;;;;;;;;;;;;;;5015578;28;8715;-85
2022/10/11 07:51:12;;;;;;;;;;;;;;;;;;5015210;28;7047;-86
2022/10/11 07:53:39;;;;;;;;;;;;;;;;;;5014859;28;8444;-87
2022/10/11 07:56:05;;;;;;;;;;;;;;;;;;5015148;28;7607;-85
2022/10/11 07:58:30;;;;;;;;;;;;;;;;;;5015074;28;7135;-89
2022/10/11 08:00:56;;;;;;;;;;;;;;;;;;5014838;28;7239;-89
2022/10/11 08:03:21;;;;;;;;;;;;;;;;;;5014915;28;7433;-89
2022/10/11 08:05:47;;;;;;;;;;;;;;;;;;5014862;28;7514;-86
2022/10/11 08:08:12;;;;;;;;;;;;;;;;;;5015435;28;8889;-86
2022/10/11 08:10:38;;;;;;;;;;;;;;;;;;5015294;28;8365;-86
2022/10/11 08:13:04;;;;;;;;;;;;;;;;;;5015664;28;7423;-87
2022/10/11 08:15:30;;;;;;;;;;;;;;;;;;5015189;28;7137;-88
2022/10/11 08:17:55;;;;;;;;;;;;;;;;;;5015422;28;8431;-86
2022/10/11 08:20:20;;;;;;;;;;;;;;;;;;5015122;28;8412;-86
2022/10/11 08:23:04;;;;;;;;;;;;;;;;;;5015081;28;7007;-84
2022/10/11 08:25:29;;;;;;;;;;;;;;;;;;5014884;28;7084;-83
2022/10/11 08:27:55;;;;;;;;;;;;;;;;;;5014363;28;8460;-83
2022/10/11 08:30:20;;;;;;;;;;;;;;;;;;5013834;28;7247;-83
2022/10/11 08:32:46;;;;;;;;;;;;;;;;;;5014304;28;8406;-84
2022/10/11 08:35:11;;;;;;;;;;;;;;;;;;5014149;28;8687;-85
2022/10/11 08:37:37;;;;;;;;;;;;;;;;;;5014530;28;8445;-84
2022/10/11 08:40:04;;;;;;;;;;;;;;;;;;5013234;28;8759;-84
2022/10/11 08:42:33;;;;;;;;;;;;;;;;;;5013442;28;7438;-84
2022/10/11 08:45:02;;;;;;;;;;;;;;;;;;5029600;28;7501;-84
2022/10/11 08:47:32;;;;;;;;;;;;;;;;;;5013204;28;7162;-83
2022/10/11 08:49:58;;;;;;;;;;;;;;;;;;5012943;28;7254;-85
2022/10/11 08:52:33;;;;;;;;;;;;;;;;;;5012978;28;7581;-87
2022/10/11 08:55:15;;;;;;;;;;;;;;;;;;5013375;28;7134;-85
2022/10/11 08:57:46;;;;;;;;;;;;;;;;;;5014247;28;7153;-83
2022/10/11 09:00:14;;;;;;;;;;;;;;;;;;5014466;28;8605;-85
2022/10/11 09:02:46;;;;;;;;;;;;;;;;;;5014277;28;8510;-85
2022/10/11 09:05:16;;;;;;;;;;;;;;;;;;5014852;28;7188;-85
2022/10/11 09:08:09;;;;;;;;;;;;;;;;;;5014155;28;7166;-84
2022/10/11 09:10:40;;;;;;;;;;;;;;;;;;5013874;28;9750;-86
2022/10/11 09:13:15;;;;;;;;;;;;;;;;;;5031526;28;7423;-85
2022/10/11 09:15:40;;;;;;;;;;;;;;;;;;5030756;28;8592;-85
2022/10/11 09:18:29;;;;;;;;;;;;;;;;;;5031019;28;7140;-86
2022/10/11 09:21:14;;;;;;;;;;;;;;;;;;5014323;28;7157;-86
2022/10/11 09:24:08;;;;;;;;;;;;;;;;;;5012836;28;8449;-84
2022/10/11 09:26:39;;;;;;;;;;;;;;;;;;5012611;28;8464;-84
2022/10/11 09:29:08;;;;;;;;;;;;;;;;;;5013696;28;8599;-84
2022/10/11 09:31:33;;;;;;;;;;;;;;;;;;5030347;28;8403;-86
2022/10/11 09:34:09;;;;;;;;;;;;;;;;;;5013499;28;8471;-83
2022/10/11 09:36:50;;;;;;;;;;;;;;;;;;5013758;28;8446;-85
2022/10/11 09:39:32;;;;;;;;;;;;;;;;;;5014297;28;8428;-84
2022/10/11 09:42:04;;;;;;;;;;;;;;;;;;4998928;28;8548;-86
2022/10/11 09:44:49;;;;;;;;;;;;;;;;;;4997827;28;7038;-85
2022/10/11 09:47:16;;;;;;;;;;;;;;;;;;4997790;28;7177;-84
2022/10/11 09:49:53;;;;;;;;;;;;;;;;;;4998492;28;7057;-84
2022/10/11 09:52:21;;;;;;;;;;;;;;;;;;4998532;28;8417;-88
2022/10/11 09:54:48;;;;;;;;;;;;;;;;;;4999127;28;7150;-85
2022/10/11 09:57:20;;;;;;;;;;;;;;;;;;4999329;28;7090;-85
2022/10/11 10:00:11;;;;;;;;;;;;;;;;;;5019126;28;7255;-86
2022/10/11 10:02:43;;;;;;;;;;;;;;;;;;5006112;28;8511;-78
2022/10/11 10:05:09;;;;;;;;;;;;;;;;;;5009873;28;8385;-78
2022/10/11 10:07:37;;;;;;;;;;;;;;;;;;5026353;28;8385;-78
2022/10/11 10:10:22;;;;;;;;;;;;;;;;;;5007889;28;7502;-78
2022/10/11 10:12:53;;;;;;;;;;;;;;;;;;5007649;28;8741;-78
2022/10/11 10:15:29;;;;;;;;;;;;;;;;;;5007923;28;8345;-78
2022/10/11 10:17:55;;;;;;;;;;;;;;;;;;5007819;28;7042;-79
2022/10/11 10:20:26;;;;;;;;;;;;;;;;;;5007754;28;8433;-79
2022/10/11 10:22:52;;;;;;;;;;;;;;;;;;5008037;28;7246;-79
2022/10/11 10:25:33;;;;;;;;;;;;;;;;;;5009523;28;8465;-79
2022/10/11 10:28:01;;;;;;;;;;;;;;;;;;5009277;28;7091;-79
2022/10/11 10:30:27;;;;;;;;;;;;;;;;;;5009446;28;9344;-78
2022/10/11 10:33:19;;;;;;;;;;;;;;;;;;5009368;28;8469;-78
2022/10/11 10:35:50;;;;;;;;;;;;;;;;;;5006991;28;7054;-78
2022/10/11 10:38:22;;;;;;;;;;;;;;;;;;5009263;28;7413;-78
2022/10/11 10:40:53;;;;;;;;;;;;;;;;;;5037628;28;8714;-78
2022/10/11 10:43:25;;;;;;;;;;;;;;;;;;5028799;28;7170;-78
2022/10/11 10:46:13;;;;;;;;;;;;;;;;;;5028743;28;8416;-78
2022/10/11 10:48:48;;;;;;;;;;;;;;;;;;5012957;28;8400;-78
2022/10/11 10:51:25;;;;;;;;;;;;;;;;;;5045036;28;8415;-78
2022/10/11 10:54:09;;;;;;;;;;;;;;;;;;5028916;28;8662;-79
2022/10/11 10:56:49;;;;;;;;;;;;;;;;;;5045179;28;8480;-79
2022/10/11 10:59:18;;;;;;;;;;;;;;;;;;5028525;28;7282;-79
2022/10/11 11:02:06;;;;;;;;;;;;;;;;;;5045005;28;8421;-78
2022/10/11 11:04:33;;;;;;;;;;;;;;;;;;5027810;28;8737;-78
2022/10/11 11:07:14;;;;;;;;;;;;;;;;;;5028542;28;7247;-79
2022/10/11 11:09:39;;;;;;;;;;;;;;;;;;5044846;28;8762;-79
2022/10/11 11:12:14;;;;;;;;;;;;;;;;;;5044888;28;8459;-79
2022/10/11 11:14:39;;;;;;;;;;;;;;;;;;5044801;28;7372;-78
2022/10/11 11:17:08;;;;;;;;;;;;;;;;;;5044731;28;8300;-79
2022/10/11 11:19:36;;;;;;;;;;;;;;;;;;5044707;28;8806;-78
2022/10/11 11:22:05;;;;;;;;;;;;;;;;;;5044663;28;8777;-78
2022/10/11 11:25:00;;;;;;;;;;;;;;;;;;5044552;28;7116;-79
2022/10/11 11:27:55;;;;;;;;;;;;;;;;;;5027995;28;7504;-79
2022/10/11 11:30:30;;;;;;;;;;;;;;;;;;5023827;28;8459;-78
2022/10/11 11:33:04;;;;;;;;;;;;;;;;;;5027127;28;8782;-83
2022/10/11 11:35:39;;;;;;;;;;;;;;;;;;5044507;28;8306;-79
2022/10/11 11:38:31;;;;;;;;;;;;;;;;;;5044503;28;7160;-79
2022/10/11 11:41:04;;;;;;;;;;;;;;;;;;5026413;28;8402;-79
2022/10/11 11:43:42;;;;;;;;;;;;;;;;;;5027723;28;8901;-79
2022/10/11 11:46:14;;;;;;;;;;;;;;;;;;5027695;28;8443;-79
2022/10/11 11:48:42;;;;;;;;;;;;;;;;;;5027571;28;7438;-79
2022/10/11 11:51:12;;;;;;;;;;;;;;;;;;5027382;28;7176;-79
2022/10/11 11:53:38;;;;;;;;;;;;;;;;;;5027598;28;8808;-79
2022/10/11 11:56:19;;;;;;;;;;;;;;;;;;5043937;28;8417;-79
2022/10/11 11:58:57;;;;;;;;;;;;;;;;;;5027495;28;8440;-78
2022/10/11 12:01:28;;;;;;;;;;;;;;;;;;5027426;28;8333;-78
2022/10/11 12:03:58;;;;;;;;;;;;;;;;;;5026450;28;8799;-78
2022/10/11 12:06:27;;;;;;;;;;;;;;;;;;5024522;28;8419;-78
2022/10/11 12:09:00;;;;;;;;;;;;;;;;;;5024569;28;8756;-81
2022/10/11 12:11:39;;;;;;;;;;;;;;;;;;5019688;28;7190;-86
2022/10/11 12:14:26;;;;;;;;;;;;;;;;;;5016648;28;8473;-84
2022/10/11 12:17:07;;;;;;;;;;;;;;;;;;5031945;28;8831;-85
2022/10/11 12:19:33;;;;;;;;;;;;;;;;;;5032080;28;8440;-84
2022/10/11 12:22:17;;;;;;;;;;;;;;;;;;5015882;28;8474;-85
2022/10/11 12:24:55;;;;;;;;;;;;;;;;;;5032253;28;9088;-85
2022/10/11 12:27:39;;;;;;;;;;;;;;;;;;5032255;28;8675;-86
2022/10/11 12:30:25;;;;;;;;;;;;;;;;;;5032135;28;8668;-86
2022/10/11 12:32:51;;;;;;;;;;;;;;;;;;5014460;28;8309;-86
2022/10/11 12:35:46;;;;;;;;;;;;;;;;;;5015400;28;8457;-86
2022/10/11 12:38:14;;;;;;;;;;;;;;;;;;5013693;28;8422;-82
2022/10/11 12:40:41;;;;;;;;;;;;;;;;;;5020551;28;8294;-80
2022/10/11 12:43:13;;;;;;;;;;;;;;;;;;5021254;28;7272;-83
2022/10/11 12:45:40;;;;;;;;;;;;;;;;;;5037509;28;8540;-85
2022/10/11 12:48:21;;;;;;;;;;;;;;;;;;5022296;28;8461;-78
2022/10/11 12:50:53;;;;;;;;;;;;;;;;;;5041621;28;8443;-81
2022/10/11 12:53:37;;;;;;;;;;;;;;;;;;5040418;28;9035;-85
2022/10/11 12:56:02;;;;;;;;;;;;;;;;;;5037985;28;7181;-82
2022/10/11 12:58:36;;;;;;;;;;;;;;;;;;5039221;28;8415;-81
2022/10/11 13:01:02;;;;;;;;;;;;;;;;;;5035702;28;7761;-85
2022/10/11 13:03:30;;;;;;;;;;;;;;;;;;5032302;28;8437;-85
2022/10/11 13:05:56;;;;;;;;;;;;;;;;;;5036794;28;7164;-78
2022/10/11 13:08:32;;;;;;;;;;;;;;;;;;5025240;28;7009;-78
2022/10/11 13:11:02;;;;;;;;;;;;;;;;;;5025193;28;7191;-78
2022/10/11 13:13:43;;;;;;;;;;;;;;;;;;5025509;28;7387;-78
2022/10/11 13:16:20;;;;;;;;;;;;;;;;;;5028785;28;7174;-78
2022/10/11 13:18:48;;;;;;;;;;;;;;;;;;5029898;28;7191;-78
2022/10/11 13:21:25;;;;;;;;;;;;;;;;;;5024934;28;8437;-87
2022/10/11 13:23:57;;;;;;;;;;;;;;;;;;5018686;28;8501;-87
2022/10/11 13:26:24;;;;;;;;;;;;;;;;;;5019200;28;7021;-86
2022/10/11 13:28:49;;;;;;;;;;;;;;;;;;5018930;28;8476;-84
2022/10/11 13:31:16;;;;;;;;;;;;;;;;;;5021173;28;8527;-84
2022/10/11 13:33:44;;;;;;;;;;;;;;;;;;5024328;28;9243;-84
2022/10/11 13:36:16;;;;;;;;;;;;;;;;;;5024209;28;7070;-83
2022/10/11 13:38:49;;;;;;;;;;;;;;;;;;5024718;28;8328;-80
2022/10/11 13:41:15;;;;;;;;;;;;;;;;;;5023982;28;8428;-85
2022/10/11 13:43:42;;;;;;;;;;;;;;;;;;5025335;28;8457;-82
2022/10/11 13:46:16;;;;;;;;;;;;;;;;;;5017798;28;8422;-85
2022/10/11 13:48:41;;;;;;;;;;;;;;;;;;5017346;28;8450;-85
2022/10/11 13:51:12;;;;;;;;;;;;;;;;;;5022958;28;8436;-83
2022/10/11 13:53:55;;;;;;;;;;;;;;;;;;5019361;28;7171;-87
2022/10/11 13:56:20;;;;;;;;;;;;;;;;;;5017532;28;8393;-84
2022/10/11 13:58:47;;;;;;;;;;;;;;;;;;5017559;28;8760;-86
2022/10/11 14:01:19;;;;;;;;;;;;;;;;;;5017540;28;7051;-86
2022/10/11 14:03:53;;;;;;;;;;;;;;;;;;5017214;28;7178;-84
2022/10/11 14:06:19;;;;;;;;;;;;;;;;;;5016767;28;8501;-85
2022/10/11 14:08:49;;;;;;;;;;;;;;;;;;5017661;28;7010;-85
2022/10/11 14:11:15;;;;;;;;;;;;;;;;;;5017313;28;8382;-85
2022/10/11 14:13:42;;;;;;;;;;;;;;;;;;5017663;28;8390;-86
2022/10/11 14:16:11;;;;;;;;;;;;;;;;;;5017710;28;8735;-85
2022/10/11 14:19:02;;;;;;;;;;;;;;;;;;5033474;28;8837;-86
2022/10/11 14:21:46;;;;;;;;;;;;;;;;;;5017011;28;7434;-84
2022/10/11 14:24:13;;;;;;;;;;;;;;;;;;5016661;28;8373;-84
2022/10/11 14:26:41;;;;;;;;;;;;;;;;;;5015711;28;7267;-84
2022/10/11 14:29:11;;;;;;;;;;;;;;;;;;5016831;28;9455;-84
2022/10/11 14:31:38;;;;;;;;;;;;;;;;;;5017243;28;8683;-84
2022/10/11 14:34:04;;;;;;;;;;;;;;;;;;5016333;28;8423;-84
2022/10/11 14:36:30;;;;;;;;;;;;;;;;;;5016643;28;8762;-84
2022/10/11 14:38:56;;;;;;;;;;;;;;;;;;5016692;28;7259;-84
2022/10/11 14:41:22;;;;;;;;;;;;;;;;;;5016486;28;8898;-85
2022/10/11 14:43:47;;;;;;;;;;;;;;;;;;5016749;28;8438;-85
2022/10/11 14:46:21;;;;;;;;;;;;;;;;;;5016555;28;8432;-84
2022/10/11 14:48:47;;;;;;;;;;;;;;;;;;5016439;28;8592;-85
2022/10/11 14:51:15;;;;;;;;;;;;;;;;;;5016321;28;7032;-84
2022/10/11 14:53:45;;;;;;;;;;;;;;;;;;5016379;28;8458;-84
2022/10/11 14:56:12;;;;;;;;;;;;;;;;;;5016454;28;8729;-85
2022/10/11 14:58:37;;;;;;;;;;;;;;;;;;5016362;28;7396;-85
2022/10/11 15:01:03;;;;;;;;;;;;;;;;;;5016795;28;6949;-85
2022/10/11 15:03:28;;;;;;;;;;;;;;;;;;5017050;28;7069;-85
2022/10/11 15:05:54;;;;;;;;;;;;;;;;;;5016181;28;7127;-84
2022/10/11 15:08:19;;;;;;;;;;;;;;;;;;5016330;28;8382;-83
2022/10/11 15:10:45;;;;;;;;;;;;;;;;;;5015838;28;7020;-84
2022/10/11 15:13:10;;;;;;;;;;;;;;;;;;5016022;28;8442;-85
2022/10/11 15:15:39;;;;;;;;;;;;;;;;;;5016192;28;7061;-85
2022/10/11 15:18:07;;;;;;;;;;;;;;;;;;5015638;28;7346;-84
2022/10/11 15:20:32;;;;;;;;;;;;;;;;;;5015592;28;8425;-85
2022/10/11 15:22:59;;;;;;;;;;;;;;;;;;5032356;28;7189;-85
2022/10/11 15:25:26;;;;;;;;;;;;;;;;;;5015688;28;8807;-85
2022/10/11 15:27:51;;;;;;;;;;;;;;;;;;5015392;28;7124;-84
2022/10/11 15:30:22;;;;;;;;;;;;;;;;;;5015616;28;7169;-84
2022/10/11 15:32:48;;;;;;;;;;;;;;;;;;5015555;28;7325;-84
2022/10/11 15:35:15;;;;;;;;;;;;;;;;;;5017172;28;7038;-83
2022/10/11 15:37:41;;;;;;;;;;;;;;;;;;5016266;28;8442;-84
2022/10/11 15:40:24;;;;;;;;;;;;;;;;;;5015307;28;8468;-84
2022/10/11 15:42:51;;;;;;;;;;;;;;;;;;5015869;28;7194;-84
2022/10/11 15:45:17;;;;;;;;;;;;;;;;;;5015267;28;7273;-84
2022/10/11 15:47:44;;;;;;;;;;;;;;;;;;5015292;28;7173;-84
2022/10/11 15:50:23;;;;;;;;;;;;;;;;;;5011787;28;8571;-84
2022/10/11 15:52:50;;;;;;;;;;;;;;;;;;4995574;28;8315;-85
2022/10/11 15:55:16;;;;;;;;;;;;;;;;;;4995487;28;8633;-84
2022/10/11 15:57:42;;;;;;;;;;;;;;;;;;4995626;28;7123;-84
2022/10/11 16:00:08;;;;;;;;;;;;;;;;;;4995097;28;8451;-84
2022/10/11 16:02:33;;;;;;;;;;;;;;;;;;4995171;28;8566;-84
2022/10/11 16:04:59;;;;;;;;;;;;;;;;;;4995058;28;7242;-84
2022/10/11 16:07:24;;;;;;;;;;;;;;;;;;4995197;28;8390;-84
2022/10/11 16:09:50;;;;;;;;;;;;;;;;;;4995147;28;8675;-84
2022/10/11 16:12:15;;;;;;;;;;;;;;;;;;4995094;28;7159;-85
2022/10/11 16:14:40;;;;;;;;;;;;;;;;;;4995083;28;8074;-84
2022/10/11 16:17:06;;;;;;;;;;;;;;;;;;4995425;28;8485;-85
2022/10/11 16:19:31;;;;;;;;;;;;;;;;;;4994871;28;8632;-84
2022/10/11 16:21:57;;;;;;;;;;;;;;;;;;4994754;28;7164;-85
2022/10/11 16:24:22;;;;;;;;;;;;;;;;;;4995205;28;8547;-85
2022/10/11 16:26:48;;;;;;;;;;;;;;;;;;4995018;28;8430;-83
2022/10/11 16:29:13;;;;;;;;;;;;;;;;;;4995110;28;8417;-85
2022/10/11 16:31:39;;;;;;;;;;;;;;;;;;4995621;28;7327;-87
2022/10/11 16:34:04;;;;;;;;;;;;;;;;;;4995302;28;7164;-85
2022/10/11 16:36:39;;;;;;;;;;;;;;;;;;4995081;28;8419;-85
2022/10/11 16:39:15;;;;;;;;;;;;;;;;;;4994591;28;7454;-85
2022/10/11 16:41:42;;;;;;;;;;;;;;;;;;4994407;28;7190;-85
2022/10/11 16:44:11;;;;;;;;;;;;;;;;;;4994376;28;7484;-84
2022/10/11 16:46:37;;;;;;;;;;;;;;;;;;4994429;28;8953;-81
2022/10/11 16:49:03;;;;;;;;;;;;;;;;;;4994574;28;7254;-81
2022/10/11 16:51:29;;;;;;;;;;;;;;;;;;4994405;28;7422;-81
2022/10/11 16:53:54;;;;;;;;;;;;;;;;;;4995004;28;8418;-82
2022/10/11 16:56:21;;;;;;;;;;;;;;;;;;4994774;28;8468;-82
2022/10/11 16:58:47;;;;;;;;;;;;;;;;;;4995132;28;7052;-80
2022/10/11 17:01:12;;;;;;;;;;;;;;;;;;4994156;28;7167;-80
2022/10/11 17:03:38;;;;;;;;;;;;;;;;;;4994573;28;8395;-82
2022/10/11 17:06:04;;;;;;;;;;;;;;;;;;4994609;28;8768;-81
2022/10/11 17:08:30;;;;;;;;;;;;;;;;;;4994516;28;8385;-82
2022/10/11 17:10:55;;;;;;;;;;;;;;;;;;4994552;28;8469;-82
2022/10/11 17:13:21;;;;;;;;;;;;;;;;;;4993735;28;8444;-84
2022/10/11 17:15:48;;;;;;;;;;;;;;;;;;4993660;28;8421;-86
2022/10/11 17:18:15;;;;;;;;;;;;;;;;;;4993983;28;8465;-86